Time;durP1;ratioP1;P1;durP2;ratioP2;P2;SDS_P1;SDS_P2;PMS_P1;PMS_P2;Temp;Humidity;BMP_temperature;BMP_pressure;BME280_temperature;BME280_humidity;BME280_pressure;Samples;Min_cycle;Max_cycle;Signal;HPM_P1;HPM_P2
2024/01/02 00:00:05;;;;;;;3.42;0.90;;;18.30;86.80;;;;;;5128072;27;20104;-52
2024/01/02 00:02:31;;;;;;;2.45;1.23;;;18.30;87.40;;;;;;5128480;27;20441;-50
2024/01/02 00:04:58;;;;;;;5.28;0.90;;;18.30;87.50;;;;;;5128335;27;20103;-49
2024/01/02 00:07:24;;;;;;;3.75;1.13;;;18.30;88.10;;;;;;5127127;27;20102;-49
2024/01/02 00:09:50;;;;;;;3.25;1.00;;;18.20;87.50;;;;;;5128370;27;20072;-49
2024/01/02 00:12:17;;;;;;;1.48;0.75;;;18.20;87.20;;;;;;5128370;27;20064;-52
2024/01/02 00:14:43;;;;;;;4.68;0.90;;;18.20;87.10;;;;;;5127027;27;20130;-55
2024/01/02 00:17:10;;;;;;;4.30;1.30;;;18.20;87.10;;;;;;5129253;27;20079;-49
2024/01/02 00:19:36;;;;;;;11.15;8.65;;;18.10;86.60;;;;;;5126982;27;20155;-51
2024/01/02 00:22:03;;;;;;;2.50;1.50;;;18.10;86.90;;;;;;5129402;27;20071;-51
2024/01/02 00:24:29;;;;;;;2.60;1.25;;;18.00;87.00;;;;;;5126205;27;20133;-51
2024/01/02 00:26:56;;;;;;;8.15;1.30;;;17.90;87.50;;;;;;5126790;27;20107;-52
2024/01/02 00:29:23;;;;;;;2.13;1.00;;;17.90;87.20;;;;;;5127121;27;20137;-52
2024/01/02 00:31:49;;;;;;;3.70;1.10;;;17.80;87.70;;;;;;5126741;27;20556;-53
2024/01/02 00:34:16;;;;;;;6.28;1.80;;;17.80;88.30;;;;;;5127481;27;20078;-53
2024/01/02 00:36:42;;;;;;;7.60;1.30;;;17.70;88.30;;;;;;5128190;27;20076;-51
2024/01/02 00:39:09;;;;;;;4.07;1.50;;;17.60;88.90;;;;;;5126859;27;20083;-53
2024/01/02 00:41:35;;;;;;;5.20;1.65;;;17.50;88.90;;;;;;5129733;27;20076;-51
2024/01/02 00:44:02;;;;;;;5.93;1.77;;;17.50;90.00;;;;;;5108941;27;20090;-48
2024/01/02 00:46:29;;;;;;;12.10;2.00;;;17.30;90.50;;;;;;5128631;27;21631;-54
2024/01/02 00:48:59;;;;;;;4.15;2.03;;;17.20;91.00;;;;;;5124536;27;20100;-58
2024/01/02 00:51:26;;;;;;;7.03;2.40;;;17.00;91.30;;;;;;5126780;27;20192;-51
2024/01/02 00:53:52;;;;;;;6.95;2.72;;;16.90;91.70;;;;;;5127425;27;20074;-52
2024/01/02 00:56:19;;;;;;;12.35;2.65;;;16.70;92.00;;;;;;5108309;27;20075;-54
2024/01/02 00:58:45;;;;;;;10.50;2.67;;;16.60;92.20;;;;;;5109476;27;20581;-52
2024/01/02 01:01:12;;;;;;;6.65;2.28;;;16.50;92.50;;;;;;5128009;27;20099;-52
2024/01/02 01:03:38;;;;;;;8.43;2.80;;;16.40;92.90;;;;;;5109004;27;20154;-55
2024/01/02 01:06:05;;;;;;;7.20;2.50;;;16.30;93.10;;;;;;5127379;27;20103;-55
2024/01/02 01:08:31;;;;;;;9.27;2.65;;;16.20;93.50;;;;;;5130002;27;20422;-52
2024/01/02 01:10:58;;;;;;;10.85;2.65;;;16.00;94.10;;;;;;5110623;27;20078;-54
2024/01/02 01:13:25;;;;;;;7.78;2.25;;;15.90;94.30;;;;;;5127494;27;20072;-59
2024/01/02 01:15:51;;;;;;;13.23;6.53;;;15.80;94.70;;;;;;5126934;27;20082;-52
2024/01/02 01:18:18;;;;;;;13.90;3.72;;;15.70;95.10;;;;;;5108750;27;20068;-55
2024/01/02 01:20:44;;;;;;;13.30;4.78;;;15.60;95.50;;;;;;5127324;27;20063;-53
2024/01/02 01:23:11;;;;;;;19.42;5.55;;;15.50;96.00;;;;;;5125145;27;20099;-51
2024/01/02 01:25:37;;;;;;;18.38;9.20;;;15.40;96.40;;;;;;5126576;27;20114;-53
2024/01/02 01:28:04;;;;;;;27.85;14.40;;;15.30;96.50;;;;;;5125016;27;20068;-53
2024/01/02 01:30:31;;;;;;;51.13;32.83;;;15.30;96.90;;;;;;5128106;27;20071;-54
2024/01/02 01:32:57;;;;;;;43.65;26.02;;;15.20;97.50;;;;;;5108720;27;20072;-54
2024/01/02 01:35:24;;;;;;;52.88;26.70;;;15.10;97.80;;;;;;5125437;27;20436;-53
2024/01/02 01:37:50;;;;;;;26.63;16.73;;;15.10;97.90;;;;;;5123989;28;20064;-57
2024/01/02 01:40:17;;;;;;;23.08;10.32;;;15.00;97.90;;;;;;5126605;27;20068;-56
2024/01/02 01:42:43;;;;;;;25.02;12.15;;;14.90;97.90;;;;;;5125484;27;20084;-54
2024/01/02 01:45:10;;;;;;;25.95;10.82;;;14.90;98.10;;;;;;5127572;28;20078;-48
2024/01/02 01:47:37;;;;;;;27.20;11.65;;;14.80;98.50;;;;;;5109082;28;20103;-50
2024/01/02 01:50:05;;;;;;;29.42;12.55;;;14.70;98.70;;;;;;5126001;28;20202;-55
2024/01/02 01:52:32;;;;;;;23.35;11.55;;;14.70;99.30;;;;;;5124197;28;20155;-50
2024/01/02 01:54:59;;;;;;;30.23;12.60;;;14.70;99.50;;;;;;5125808;28;20076;-52
2024/01/02 01:57:26;;;;;;;30.42;14.13;;;14.60;99.80;;;;;;5125885;28;20106;-50
2024/01/02 01:59:53;;;;;;;36.45;14.50;;;14.50;99.90;;;;;;5127500;28;20102;-54
2024/01/02 02:02:21;;;;;;;38.38;14.10;;;14.40;99.90;;;;;;5125339;28;20121;-56
2024/01/02 02:04:50;;;;;;;26.38;13.68;;;14.40;99.90;;;;;;5123838;28;20078;-52
2024/01/02 02:07:17;;;;;;;28.17;13.90;;;14.30;99.90;;;;;;5107124;28;20111;-51
2024/01/02 02:09:44;;;;;;;28.95;13.20;;;14.20;99.90;;;;;;5125644;28;20102;-54
2024/01/02 02:12:11;;;;;;;29.25;13.63;;;14.10;99.90;;;;;;5128291;28;20151;-53
2024/01/02 02:14:37;;;;;;;31.27;12.98;;;14.10;99.90;;;;;;5126365;27;20590;-54
2024/01/02 02:17:04;;;;;;;29.90;13.48;;;14.10;99.90;;;;;;5111120;27;20083;-56
2024/01/02 02:19:31;;;;;;;31.98;13.00;;;14.00;99.90;;;;;;5130854;27;21306;-53
2024/01/02 02:22:00;;;;;;;26.73;13.52;;;14.00;99.90;;;;;;5112013;27;20132;-54
2024/01/02 02:24:27;;;;;;;34.75;15.20;;;13.90;99.90;;;;;;5128871;27;20105;-51
2024/01/02 02:26:57;;;;;;;38.80;16.92;;;13.90;99.90;;;;;;5110843;27;20450;-53
2024/01/02 02:29:24;;;;;;;45.88;16.17;;;13.80;99.90;;;;;;5109630;27;20132;-54
2024/01/02 02:31:51;;;;;;;33.08;15.77;;;13.80;99.90;;;;;;5128447;27;20076;-52
2024/01/02 02:34:19;;;;;;;30.58;14.10;;;13.80;99.90;;;;;;5129402;27;20112;-53
2024/01/02 02:36:46;;;;;;;30.40;12.75;;;13.70;99.90;;;;;;5129219;27;20619;-54
2024/01/02 02:39:13;;;;;;;30.65;11.43;;;13.70;99.90;;;;;;5129958;27;20544;-53
2024/01/02 02:41:39;;;;;;;25.42;12.25;;;13.60;99.90;;;;;;5130323;27;20071;-53
2024/01/02 02:44:06;;;;;;;26.67;11.75;;;13.50;99.90;;;;;;5130681;27;20072;-54
2024/01/02 02:46:32;;;;;;;23.75;10.80;;;13.50;99.90;;;;;;5128998;27;20096;-52
2024/01/02 02:48:59;;;;;;;25.63;9.45;;;13.50;99.90;;;;;;5111985;27;20514;-54
2024/01/02 02:51:26;;;;;;;25.98;9.38;;;13.60;99.90;;;;;;5126553;27;20145;-52
2024/01/02 02:53:52;;;;;;;27.50;9.48;;;13.50;99.90;;;;;;5130945;27;20124;-58
2024/01/02 02:56:19;;;;;;;28.90;9.60;;;13.50;99.90;;;;;;5129070;27;20079;-54
2024/01/02 02:58:45;;;;;;;17.73;8.50;;;13.50;99.90;;;;;;5112286;27;20106;-52
2024/01/02 03:01:21;;;;;;;20.08;9.10;;;13.40;99.90;;;;;;5125927;27;20087;-53
2024/01/02 03:03:48;;;;;;;22.25;9.35;;;13.30;99.90;;;;;;5129513;27;20075;-54
2024/01/02 03:06:15;;;;;;;23.63;10.32;;;13.20;99.90;;;;;;5128361;27;20108;-51
2024/01/02 03:08:42;;;;;;;32.03;10.88;;;13.20;99.90;;;;;;5130047;27;20177;-57
2024/01/02 03:11:08;;;;;;;26.02;8.38;;;13.20;99.90;;;;;;5128347;27;20068;-51
2024/01/02 03:13:35;;;;;;;30.77;8.40;;;13.10;99.90;;;;;;5127627;27;20098;-54
2024/01/02 03:16:02;;;;;;;22.80;7.47;;;13.10;99.90;;;;;;5129218;27;20091;-51
2024/01/02 03:18:28;;;;;;;15.32;7.47;;;13.10;99.90;;;;;;5111435;27;20132;-56
2024/01/02 03:20:55;;;;;;;29.17;7.70;;;13.10;99.90;;;;;;5128393;27;20080;-52
2024/01/02 03:23:23;;;;;;;18.33;7.07;;;13.00;99.90;;;;;;5130100;27;20072;-51
2024/01/02 03:25:49;;;;;;;17.38;6.68;;;13.00;99.90;;;;;;5128452;27;20076;-55
2024/01/02 03:28:16;;;;;;;24.42;7.40;;;13.00;99.90;;;;;;5127455;27;20154;-52
2024/01/02 03:30:43;;;;;;;24.08;7.82;;;12.90;99.90;;;;;;5128509;27;20151;-52
2024/01/02 03:33:09;;;;;;;21.67;8.20;;;12.90;99.90;;;;;;5128941;27;20565;-53
2024/01/02 03:35:36;;;;;;;33.55;9.77;;;12.80;99.90;;;;;;5128802;27;20072;-56
2024/01/02 03:38:03;;;;;;;34.15;11.43;;;12.80;99.90;;;;;;5128990;27;20098;-56
2024/01/02 03:40:29;;;;;;;33.63;12.57;;;12.70;99.90;;;;;;5109854;27;20076;-55
2024/01/02 03:42:56;;;;;;;41.58;15.43;;;12.70;99.90;;;;;;5130133;27;20152;-55
2024/01/02 03:45:23;;;;;;;62.65;24.55;;;12.60;99.90;;;;;;5111477;27;20076;-55
2024/01/02 03:47:49;;;;;;;61.40;25.83;;;12.60;99.90;;;;;;5127948;27;20099;-54
2024/01/02 03:50:16;;;;;;;65.88;27.65;;;12.60;99.90;;;;;;5109097;27;20457;-53
2024/01/02 03:52:42;;;;;;;62.83;27.52;;;12.60;99.90;;;;;;5129189;27;22433;-52
2024/01/02 03:55:09;;;;;;;65.25;31.17;;;12.50;99.90;;;;;;5126108;27;20152;-53
2024/01/02 03:57:35;;;;;;;77.85;30.58;;;12.50;99.90;;;;;;5129444;27;20158;-55
2024/01/02 04:00:04;;;;;;;99.65;35.50;;;12.50;99.90;;;;;;5126780;27;20076;-55
2024/01/02 04:02:31;;;;;;;89.93;35.92;;;12.50;99.90;;;;;;5129127;27;20079;-56
2024/01/02 04:04:57;;;;;;;94.18;38.15;;;12.40;99.90;;;;;;5112637;27;20084;-53
2024/01/02 04:07:24;;;;;;;83.05;37.10;;;12.40;99.90;;;;;;5129151;27;20138;-53
2024/01/02 04:09:51;;;;;;;91.85;39.55;;;12.40;99.90;;;;;;5124839;27;20084;-53
2024/01/02 04:12:17;;;;;;;93.25;39.85;;;12.40;99.90;;;;;;5124816;27;20091;-54
2024/01/02 04:14:44;;;;;;;92.03;41.00;;;12.40;99.90;;;;;;5108037;27;20446;-52
2024/01/02 04:17:10;;;;;;;115.13;45.08;;;12.40;99.90;;;;;;5128841;27;20121;-56
2024/01/02 04:19:37;;;;;;;131.05;49.22;;;12.40;99.90;;;;;;5127950;27;20507;-58
2024/01/02 04:22:04;;;;;;;142.90;50.50;;;12.40;99.90;;;;;;5125458;27;20542;-56
2024/01/02 04:24:31;;;;;;;129.35;55.22;;;12.40;99.90;;;;;;5129992;27;20110;-52
2024/01/02 04:26:57;;;;;;;122.97;54.72;;;12.40;99.90;;;;;;5109878;27;20109;-51
2024/01/02 04:29:24;;;;;;;118.63;56.15;;;12.30;99.90;;;;;;5128179;27;20125;-55
2024/01/02 04:31:51;;;;;;;125.05;62.78;;;12.30;99.90;;;;;;5129655;27;20102;-54
2024/01/02 04:34:17;;;;;;;143.93;59.00;;;12.40;99.90;;;;;;5109639;27;20103;-52
2024/01/02 04:36:44;;;;;;;134.02;58.67;;;12.40;99.90;;;;;;5127734;27;20164;-55
2024/01/02 04:39:11;;;;;;;141.02;56.85;;;12.40;99.90;;;;;;5126096;27;20075;-50
2024/01/02 04:41:37;;;;;;;156.73;59.20;;;12.50;99.90;;;;;;5128880;27;20078;-57
2024/01/02 04:44:04;;;;;;;147.93;62.60;;;12.60;99.90;;;;;;5129552;27;20095;-50
2024/01/02 04:46:30;;;;;;;129.15;46.75;;;12.50;99.90;;;;;;5128607;27;20114;-53
2024/01/02 04:48:57;;;;;;;117.10;45.03;;;12.60;99.90;;;;;;5126553;27;20067;-54
2024/01/02 04:51:24;;;;;;;95.25;38.22;;;12.60;99.90;;;;;;5105425;28;20116;-54
2024/01/02 04:53:51;;;;;;;111.03;37.13;;;12.60;99.90;;;;;;5107653;28;20130;-55
2024/01/02 04:56:17;;;;;;;91.20;38.20;;;12.60;99.90;;;;;;5106749;28;20107;-50
2024/01/02 04:58:44;;;;;;;89.85;35.75;;;12.60;99.90;;;;;;5106983;28;20080;-53
2024/01/02 05:01:10;;;;;;;94.03;34.97;;;12.60;99.90;;;;;;5107682;28;20547;-54
2024/01/02 05:03:37;;;;;;;84.40;34.10;;;12.60;99.90;;;;;;5105111;28;20072;-52
2024/01/02 05:06:03;;;;;;;86.03;32.97;;;12.60;99.90;;;;;;5106520;28;20468;-55
2024/01/02 05:08:30;;;;;;;76.63;33.08;;;12.50;99.90;;;;;;5106111;28;20095;-52
2024/01/02 05:10:56;;;;;;;80.53;31.63;;;12.50;99.90;;;;;;5106678;28;20083;-51
2024/01/02 05:13:23;;;;;;;80.35;29.60;;;12.50;99.90;;;;;;5107035;28;20441;-55
2024/01/02 05:15:50;;;;;;;64.03;28.73;;;12.50;99.90;;;;;;5107101;28;20083;-54
2024/01/02 05:18:17;;;;;;;66.18;26.02;;;12.60;99.90;;;;;;5106965;28;20080;-55
2024/01/02 05:20:43;;;;;;;71.32;26.40;;;12.50;99.90;;;;;;5107133;28;20084;-52
2024/01/02 05:23:10;;;;;;;55.90;24.25;;;12.50;99.90;;;;;;5106881;28;20076;-52
2024/01/02 05:25:36;;;;;;;58.67;24.13;;;12.50;99.90;;;;;;5105352;28;20080;-52
2024/01/02 05:28:03;;;;;;;60.95;21.88;;;12.60;99.90;;;;;;5106789;28;20104;-50
2024/01/02 05:30:29;;;;;;;59.22;22.45;;;12.60;99.90;;;;;;5105645;28;20069;-52
2024/01/02 05:32:56;;;;;;;50.05;21.65;;;12.60;99.90;;;;;;5106229;28;20069;-53
2024/01/02 05:35:22;;;;;;;57.85;23.45;;;12.60;99.90;;;;;;5106322;28;20129;-53
2024/01/02 05:37:49;;;;;;;57.92;22.80;;;12.60;99.90;;;;;;5106334;28;20068;-54
2024/01/02 05:40:15;;;;;;;64.47;23.45;;;12.50;99.90;;;;;;5106159;28;20111;-52
2024/01/02 05:42:43;;;;;;;55.28;22.42;;;12.50;99.90;;;;;;5108499;28;20090;-56
2024/01/02 05:45:09;;;;;;;49.72;22.13;;;12.50;99.90;;;;;;5105800;28;20105;-53
2024/01/02 05:47:36;;;;;;;51.90;23.40;;;12.40;99.90;;;;;;5106354;28;20107;-52
2024/01/02 05:50:03;;;;;;;64.82;24.02;;;12.30;99.90;;;;;;5111267;28;20579;-54
2024/01/02 05:52:29;;;;;;;50.85;22.92;;;12.30;99.90;;;;;;5133773;27;20111;-51
2024/01/02 05:54:56;;;;;;;57.80;23.48;;;12.30;99.90;;;;;;5133649;27;20068;-51
2024/01/02 05:57:22;;;;;;;61.45;25.80;;;12.20;99.90;;;;;;5134458;27;20082;-49
2024/01/02 05:59:48;;;;;;;59.90;29.80;;;12.20;99.90;;;;;;5134249;27;20095;-55
2024/01/02 06:02:15;;;;;;;72.93;32.63;;;12.20;99.90;;;;;;5134098;27;20109;-51
2024/01/02 06:04:41;;;;;;;93.43;43.58;;;12.20;99.90;;;;;;5129492;27;20132;-52
2024/01/02 06:07:08;;;;;;;103.97;48.53;;;12.30;99.90;;;;;;5133662;27;20139;-55
2024/01/02 06:09:34;;;;;;;95.00;47.63;;;12.30;99.90;;;;;;5133110;27;20099;-54
2024/01/02 06:12:01;;;;;;;93.63;50.75;;;12.30;99.90;;;;;;5134807;27;20136;-55
2024/01/02 06:14:27;;;;;;;85.53;45.63;;;12.40;99.90;;;;;;5113921;27;20572;-52
2024/01/02 06:16:54;;;;;;;75.07;39.17;;;12.40;99.90;;;;;;5134188;27;20076;-49
2024/01/02 06:19:20;;;;;;;59.30;36.95;;;12.50;99.90;;;;;;5133680;27;20091;-54
2024/01/02 06:21:46;;;;;;;;;;;12.60;99.90;;;;;;5133697;27;20155;-52
2024/01/02 06:24:12;;;;;;;76.15;36.63;;;12.60;99.90;;;;;;5134750;27;19962;-57
2024/01/02 06:26:39;;;;;;;58.72;33.95;;;12.70;99.90;;;;;;5129326;27;20611;-52
2024/01/02 06:29:07;;;;;;;67.50;33.08;;;12.60;99.90;;;;;;5131708;27;20116;-50
2024/01/02 06:31:33;;;;;;;62.45;31.65;;;12.60;99.90;;;;;;5132092;27;20079;-52
2024/01/02 06:33:59;;;;;;;61.90;33.95;;;12.50;99.90;;;;;;5133968;27;20088;-52
2024/01/02 06:36:26;;;;;;;60.80;31.00;;;12.50;99.90;;;;;;5133380;27;20160;-54
2024/01/02 06:38:52;;;;;;;65.80;32.78;;;12.40;99.90;;;;;;5133907;27;20117;-54
2024/01/02 06:41:18;;;;;;;;;;;12.20;99.90;;;;;;5132380;27;20071;-54
2024/01/02 06:43:45;;;;;;;61.95;30.40;;;12.20;99.90;;;;;;5133244;27;19975;-57
2024/01/02 06:46:14;;;;;;;67.43;31.55;;;12.10;99.90;;;;;;5131338;27;20145;-54
2024/01/02 06:48:42;;;;;;;53.60;29.20;;;12.10;99.90;;;;;;5114881;27;20075;-54
2024/01/02 06:51:08;;;;;;;51.40;27.30;;;12.10;99.90;;;;;;5133084;27;20116;-55
2024/01/02 06:53:35;;;;;;;60.40;29.05;;;12.00;99.90;;;;;;5132508;27;20076;-54
2024/01/02 06:56:01;;;;;;;56.85;33.40;;;12.00;99.90;;;;;;5132390;27;20171;-54
2024/01/02 06:58:27;;;;;;;65.90;33.17;;;11.90;99.90;;;;;;5132755;27;20513;-53
2024/01/02 07:00:54;;;;;;;65.45;33.00;;;11.80;99.90;;;;;;5130193;27;20213;-52
2024/01/02 07:03:21;;;;;;;63.33;33.55;;;11.70;99.90;;;;;;5135034;27;20071;-57
2024/01/02 07:05:48;;;;;;;63.60;34.17;;;11.70;99.90;;;;;;5129331;27;20091;-49
2024/01/02 07:08:14;;;;;;;55.80;30.25;;;11.70;99.90;;;;;;5129528;27;20742;-52
2024/01/02 07:10:41;;;;;;;55.40;27.90;;;11.70;99.90;;;;;;5131356;27;20445;-54
2024/01/02 07:13:07;;;;;;;47.42;25.48;;;11.70;99.90;;;;;;5130078;27;20475;-53
2024/01/02 07:15:34;;;;;;;48.25;24.80;;;11.60;99.90;;;;;;5126969;27;20067;-56
2024/01/02 07:18:00;;;;;;;45.42;23.48;;;11.60;99.90;;;;;;5128368;27;20180;-51
2024/01/02 07:20:26;;;;;;;;;;;11.60;99.90;;;;;;5129931;27;20166;-49
2024/01/02 07:22:53;;;;;;;33.13;15.35;;;11.70;99.90;;;;;;5130650;27;20052;-54
2024/01/02 07:25:19;;;;;;;34.67;14.25;;;11.80;99.90;;;;;;5128818;27;20440;-59
2024/01/02 07:27:45;;;;;;;32.47;12.75;;;11.90;99.90;;;;;;5111014;27;20104;-53
2024/01/02 07:30:12;;;;;;;24.58;12.65;;;12.10;99.90;;;;;;5130280;27;20083;-50
2024/01/02 07:32:39;;;;;;;29.67;12.52;;;12.10;99.90;;;;;;5129871;27;20144;-51
2024/01/02 07:35:06;;;;;;;27.20;13.80;;;12.10;99.90;;;;;;5109723;27;20449;-48
2024/01/02 07:37:33;;;;;;;30.10;14.20;;;12.20;99.90;;;;;;5128389;27;20078;-55
2024/01/02 07:40:01;;;;;;;31.65;14.88;;;12.20;99.90;;;;;;5127892;27;20474;-53
2024/01/02 07:42:28;;;;;;;37.42;16.90;;;12.10;99.90;;;;;;5126772;27;20072;-53
2024/01/02 07:44:54;;;;;;;37.80;16.55;;;12.20;99.90;;;;;;5127068;27;20459;-55
2024/01/02 07:47:21;;;;;;;36.25;17.33;;;12.10;99.90;;;;;;5129056;27;20106;-52
2024/01/02 07:49:47;;;;;;;39.60;17.77;;;12.10;99.90;;;;;;5128131;27;20154;-51
2024/01/02 07:52:14;;;;;;;35.97;17.52;;;12.10;99.90;;;;;;5129702;27;20107;-52
2024/01/02 07:54:40;;;;;;;41.28;17.63;;;12.00;99.90;;;;;;5126535;27;20538;-53
2024/01/02 07:57:07;;;;;;;36.60;16.83;;;12.00;99.90;;;;;;5128969;27;20546;-52
2024/01/02 07:59:33;;;;;;;46.33;19.23;;;12.00;99.90;;;;;;5127869;27;20076;-52
2024/01/02 08:02:01;;;;;;;40.70;18.08;;;11.90;99.90;;;;;;5127042;27;20725;-55
2024/01/02 08:04:29;;;;;;;34.80;16.73;;;11.80;99.90;;;;;;5129623;27;20076;-50
2024/01/02 08:06:57;;;;;;;35.58;17.35;;;11.70;99.90;;;;;;5127444;27;20107;-58
2024/01/02 08:09:24;;;;;;;48.58;18.60;;;11.70;99.90;;;;;;5128081;27;20105;-55
2024/01/02 08:11:51;;;;;;;34.78;17.98;;;11.70;99.90;;;;;;5125930;27;20564;-56
2024/01/02 08:14:17;;;;;;;34.60;16.13;;;11.60;99.90;;;;;;5129396;27;20076;-58
2024/01/02 08:16:44;;;;;;;35.03;15.38;;;11.50;99.90;;;;;;5107426;27;20421;-53
2024/01/02 08:19:11;;;;;;;25.50;14.23;;;11.50;99.90;;;;;;5125875;27;20433;-54
2024/01/02 08:21:38;;;;;;;36.55;14.02;;;11.40;99.90;;;;;;5128840;27;20130;-52
2024/01/02 08:24:05;;;;;;;31.63;14.50;;;11.40;99.90;;;;;;5128348;27;20079;-51
2024/01/02 08:26:32;;;;;;;23.23;13.05;;;11.30;99.90;;;;;;5127677;27;20092;-55
2024/01/02 08:28:58;;;;;;;30.10;13.13;;;11.30;99.90;;;;;;5127865;27;20597;-52
2024/01/02 08:31:25;;;;;;;28.02;12.27;;;11.30;99.90;;;;;;5127688;27;20162;-53
2024/01/02 08:33:51;;;;;;;25.40;11.73;;;11.20;99.90;;;;;;5128576;27;20080;-50
2024/01/02 08:36:18;;;;;;;27.00;11.43;;;11.10;99.90;;;;;;5127087;27;20144;-54
2024/01/02 08:38:45;;;;;;;25.23;9.88;;;11.10;99.90;;;;;;5126495;27;20514;-56
2024/01/02 08:41:12;;;;;;;19.30;10.35;;;11.10;99.90;;;;;;5128424;27;20072;-51
2024/01/02 08:43:38;;;;;;;21.75;10.38;;;11.00;99.90;;;;;;5127105;27;20566;-54
2024/01/02 08:46:04;;;;;;;24.90;9.88;;;11.10;99.90;;;;;;5128530;27;20246;-57
2024/01/02 08:48:31;;;;;;;18.00;8.52;;;11.10;99.90;;;;;;5108006;27;20084;-51
2024/01/02 08:50:58;;;;;;;19.13;8.82;;;11.10;99.90;;;;;;5127201;27;20498;-57
2024/01/02 08:53:24;;;;;;;13.70;7.82;;;11.10;99.90;;;;;;5126084;27;20468;-54
2024/01/02 08:55:50;;;;;;;16.17;7.75;;;11.00;99.90;;;;;;5127666;27;20079;-56
2024/01/02 08:58:18;;;;;;;22.95;8.88;;;11.00;99.90;;;;;;5125953;27;21785;-53
2024/01/02 09:00:44;;;;;;;16.70;9.93;;;10.90;99.90;;;;;;5128262;27;20082;-54
2024/01/02 09:03:11;;;;;;;24.80;13.77;;;10.90;99.90;;;;;;5125801;27;20075;-54
2024/01/02 09:05:37;;;;;;;48.70;22.27;;;10.90;99.90;;;;;;5127484;27;20064;-51
2024/01/02 09:08:04;;;;;;;48.60;22.48;;;10.90;99.90;;;;;;5124617;27;20107;-52
2024/01/02 09:10:31;;;;;;;48.78;22.77;;;10.90;99.90;;;;;;5109363;27;20141;-50
2024/01/02 09:12:57;;;;;;;57.13;22.52;;;10.90;99.90;;;;;;5125443;27;20076;-52
2024/01/02 09:15:23;;;;;;;57.53;21.13;;;10.80;99.90;;;;;;5125937;27;20072;-52
2024/01/02 09:17:50;;;;;;;45.53;21.20;;;10.80;99.90;;;;;;5127857;27;20074;-52
2024/01/02 09:20:16;;;;;;;50.28;20.48;;;10.80;99.90;;;;;;5126272;27;20079;-52
2024/01/02 09:22:43;;;;;;;41.72;18.38;;;10.80;99.90;;;;;;5126686;27;20071;-53
2024/01/02 09:25:12;;;;;;;34.53;14.07;;;10.80;99.90;;;;;;5125546;27;20076;-56
2024/01/02 09:27:42;;;;;;;27.52;13.38;;;10.90;99.90;;;;;;5126347;27;20091;-52
2024/01/02 09:30:12;;;;;;;29.65;12.40;;;10.90;99.90;;;;;;5107798;27;20501;-55
2024/01/02 09:32:38;;;;;;;30.23;10.95;;;11.00;99.90;;;;;;5108162;27;20083;-54
2024/01/02 09:35:05;;;;;;;19.65;9.30;;;11.00;99.90;;;;;;5126766;27;20087;-50
2024/01/02 09:37:32;;;;;;;22.50;10.10;;;11.00;99.90;;;;;;5125897;27;20475;-52
2024/01/02 09:39:58;;;;;;;23.20;9.77;;;11.00;99.90;;;;;;5125447;27;20087;-53
2024/01/02 09:43:04;;;;;;;26.60;8.95;;;11.00;99.90;;;;;;5126389;27;20079;-57
2024/01/02 09:45:45;;;;;;;16.23;7.80;;;10.90;99.90;;;;;;5107592;28;20080;-56
2024/01/02 09:48:38;;;;;;;17.45;7.45;;;10.90;99.90;;;;;;5126929;28;20091;-53
2024/01/02 09:51:12;;;;;;;16.77;7.07;;;10.90;99.90;;;;;;5078763;28;20116;-52
2024/01/02 09:53:44;;;;;;;13.02;6.78;;;11.00;99.90;;;;;;5126469;28;20086;-56
2024/01/02 09:56:15;;;;;;;10.20;5.90;;;11.00;99.90;;;;;;5127354;28;20071;-55
2024/01/02 09:59:03;;;;;;;10.68;5.32;;;11.00;99.90;;;;;;5124911;28;20103;-57
2024/01/02 10:02:06;;;;;;;13.38;5.03;;;11.00;99.90;;;;;;5125353;28;20886;-55
2024/01/02 10:04:54;;;;;;;6.85;3.65;;;11.10;99.90;;;;;;5125093;28;20075;-52
2024/01/02 10:07:27;;;;;;;10.50;3.47;;;11.20;99.90;;;;;;5126138;28;20107;-56
2024/01/02 10:10:03;;;;;;;9.88;3.67;;;11.20;99.90;;;;;;5125397;28;20472;-56
2024/01/02 10:12:32;;;;;;;12.57;3.90;;;11.30;99.90;;;;;;5123148;28;20074;-56
2024/01/02 10:15:07;;;;;;;6.72;3.65;;;11.10;99.90;;;;;;5126846;28;20076;-56
2024/01/02 10:17:57;;;;;;;7.68;3.75;;;11.10;99.90;;;;;;5125095;28;20158;-52
2024/01/02 10:20:43;;;;;;;9.88;4.07;;;11.00;99.90;;;;;;5123548;28;20657;-55
2024/01/02 10:23:28;;;;;;;7.65;4.07;;;10.90;99.90;;;;;;5125178;28;20643;-54
2024/01/02 10:26:00;;;;;;;10.00;3.85;;;10.90;99.90;;;;;;5120960;28;20084;-49
2024/01/02 10:28:30;;;;;;;8.55;3.65;;;10.90;99.90;;;;;;5125634;28;20087;-48
2024/01/02 10:31:11;;;;;;;12.95;3.90;;;10.80;99.90;;;;;;5103421;28;20102;-55
2024/01/02 10:33:53;;;;;;;8.82;3.78;;;10.80;99.90;;;;;;5107600;28;20075;-51
2024/01/02 10:36:22;;;;;;;8.82;3.83;;;10.80;99.90;;;;;;5129072;27;20555;-58
2024/01/02 10:39:08;;;;;;;6.68;3.67;;;10.70;99.90;;;;;;5127818;27;20072;-58
2024/01/02 10:42:07;;;;;;;9.23;4.00;;;10.70;99.90;;;;;;5126987;27;20162;-50
2024/01/02 10:44:52;;;;;;;10.07;3.50;;;10.50;99.90;;;;;;5128591;27;20083;-54
2024/01/02 10:47:58;;;;;;;7.10;3.10;;;10.60;99.90;;;;;;5128307;27;20108;-52
2024/01/02 10:50:48;;;;;;;6.82;2.67;;;10.60;99.90;;;;;;5114043;27;20438;-51
2024/01/02 10:53:45;;;;;;;8.00;2.90;;;10.60;99.90;;;;;;5129262;27;20471;-55
2024/01/02 10:56:26;;;;;;;10.80;6.43;;;10.50;99.90;;;;;;5129561;27;20075;-52
2024/01/02 10:59:18;;;;;;;5.72;2.97;;;10.50;99.90;;;;;;5110687;27;20075;-52
2024/01/02 11:01:47;;;;;;;9.15;3.35;;;10.50;99.90;;;;;;5129198;27;20080;-51
2024/01/02 11:04:33;;;;;;;7.97;3.15;;;10.50;99.90;;;;;;5129142;27;20410;-56
2024/01/02 11:07:06;;;;;;;9.47;2.83;;;10.50;99.90;;;;;;5130108;27;20096;-50
2024/01/02 11:10:11;;;;;;;12.55;3.13;;;10.50;99.90;;;;;;5127435;27;20168;-50
2024/01/02 11:12:46;;;;;;;12.82;3.42;;;10.60;99.90;;;;;;5128712;27;20186;-49
2024/01/02 11:15:14;;;;;;;9.70;3.13;;;10.50;99.90;;;;;;5129619;27;20195;-50
2024/01/02 11:17:42;;;;;;;12.40;3.22;;;10.60;99.90;;;;;;5128398;27;20120;-52
2024/01/02 11:20:19;;;;;;;8.05;3.15;;;10.60;99.90;;;;;;5128035;27;20071;-54
2024/01/02 11:22:45;;;;;;;;;;;10.50;99.90;;;;;;5129540;27;20083;-48
2024/01/02 11:25:13;;;;;;;9.82;3.15;;;10.60;99.90;;;;;;5128972;27;20098;-50
2024/01/02 11:27:43;;;;;;;5.45;3.00;;;10.60;99.90;;;;;;5109625;27;20095;-53
2024/01/02 11:30:13;;;;;;;7.25;3.50;;;10.50;99.90;;;;;;5128297;27;20517;-51
2024/01/02 11:32:56;;;;;;;7.22;3.03;;;10.50;99.90;;;;;;5127584;27;20079;-54
2024/01/02 11:35:24;;;;;;;7.47;3.00;;;10.40;99.90;;;;;;5127701;27;20441;-54
2024/01/02 11:38:08;;;;;;;5.88;2.78;;;10.50;99.90;;;;;;5128932;27;20079;-53
2024/01/02 11:41:06;;;;;;;7.43;3.20;;;10.50;99.90;;;;;;5128106;27;20072;-54
2024/01/02 11:43:35;;;;;;;6.55;3.50;;;10.40;99.90;;;;;;5127995;27;20079;-54
2024/01/02 11:46:07;;;;;;;9.00;3.75;;;10.40;99.90;;;;;;5128377;27;20075;-51
2024/01/02 11:48:40;;;;;;;5.72;3.33;;;10.40;99.90;;;;;;5129124;27;20080;-53
2024/01/02 11:51:27;;;;;;;8.13;4.20;;;10.40;99.90;;;;;;5109995;27;20546;-51
2024/01/02 11:54:12;;;;;;;8.23;3.72;;;10.50;99.90;;;;;;5127168;27;20073;-51
2024/01/02 11:56:39;;;;;;;8.20;3.17;;;10.50;99.90;;;;;;5128069;27;20083;-51
2024/01/02 11:59:25;;;;;;;8.93;3.10;;;10.40;99.90;;;;;;5128389;27;20082;-50
2024/01/02 12:02:19;;;;;;;7.95;3.10;;;10.30;99.90;;;;;;5127392;27;20120;-49
2024/01/02 12:05:20;;;;;;;9.23;3.47;;;10.30;99.90;;;;;;5086921;27;20088;-51
2024/01/02 12:07:50;;;;;;;6.35;3.00;;;10.20;99.90;;;;;;5127843;27;20107;-53
2024/01/02 12:10:18;;;;;;;7.57;2.72;;;10.20;99.90;;;;;;5109426;27;20072;-50
2024/01/02 12:13:04;;;;;;;8.10;2.72;;;10.10;99.90;;;;;;5127441;27;20076;-50
2024/01/02 12:15:54;;;;;;;5.55;2.63;;;10.10;99.90;;;;;;5125934;27;20090;-49
2024/01/02 12:18:30;;;;;;;9.68;3.25;;;10.10;99.90;;;;;;5126555;27;20084;-53
2024/01/02 12:21:18;;;;;;;8.33;2.80;;;10.00;99.90;;;;;;5127119;27;20076;-53
2024/01/02 12:23:49;;;;;;;6.72;2.70;;;10.10;99.90;;;;;;5126640;27;20083;-51
2024/01/02 12:26:24;;;;;;;4.50;2.40;;;10.10;99.90;;;;;;5127113;27;20074;-52
2024/01/02 12:28:51;;;;;;;7.57;2.17;;;10.20;99.90;;;;;;5126106;27;20063;-53
2024/01/02 12:31:28;;;;;;;3.53;2.00;;;10.20;99.90;;;;;;5128218;27;20067;-54
2024/01/02 12:33:59;;;;;;;;;;;10.10;99.90;;;;;;5109246;27;20072;-52
2024/01/02 12:37:12;;;;;;;5.07;1.80;;;10.00;99.90;;;;;;5128263;27;19983;-50
2024/01/02 12:39:40;;;;;;;12.05;1.90;;;10.00;99.90;;;;;;5126556;27;20068;-54
2024/01/02 12:42:13;;;;;;;4.28;1.88;;;10.10;99.90;;;;;;5127586;27;20166;-51
2024/01/02 12:44:47;;;;;;;8.10;1.98;;;9.90;99.90;;;;;;5126556;27;20087;-48
2024/01/02 12:47:19;;;;;;;5.07;2.05;;;9.80;99.90;;;;;;5126209;27;20095;-50